sensor_id;sensor_type;location;lat;lon;timestamp;temperature;humidity
74617;DHT22;63123;50.906;4.198;2023-04-24T00:00:55;16.70;59.00
74617;DHT22;63123;50.906;4.198;2023-04-24T00:03:22;16.70;59.50
74617;DHT22;63123;50.906;4.198;2023-04-24T00:05:48;16.70;59.00
74617;DHT22;63123;50.906;4.198;2023-04-24T00:08:14;16.70;58.90
74617;DHT22;63123;50.906;4.198;2023-04-24T00:10:40;16.70;58.80
74617;DHT22;63123;50.906;4.198;2023-04-24T00:13:06;16.70;59.00
74617;DHT22;63123;50.906;4.198;2023-04-24T00:15:31;16.70;59.00
74617;DHT22;63123;50.906;4.198;2023-04-24T00:17:58;16.70;58.90
74617;DHT22;63123;50.906;4.198;2023-04-24T00:20:23;16.70;58.80
74617;DHT22;63123;50.906;4.198;2023-04-24T00:22:49;16.70;58.90
74617;DHT22;63123;50.906;4.198;2023-04-24T00:25:15;16.70;58.90
74617;DHT22;63123;50.906;4.198;2023-04-24T00:27:40;16.70;58.80
74617;DHT22;63123;50.906;4.198;2023-04-24T00:30:06;16.70;58.90
74617;DHT22;63123;50.906;4.198;2023-04-24T00:32:32;16.70;59.50
74617;DHT22;63123;50.906;4.198;2023-04-24T00:34:58;16.70;58.90
74617;DHT22;63123;50.906;4.198;2023-04-24T00:37:23;16.70;58.80
74617;DHT22;63123;50.906;4.198;2023-04-24T00:39:49;16.70;58.80
74617;DHT22;63123;50.906;4.198;2023-04-24T00:42:15;16.70;58.80
74617;DHT22;63123;50.906;4.198;2023-04-24T00:44:40;16.70;58.80
74617;DHT22;63123;50.906;4.198;2023-04-24T00:47:07;16.70;58.80
74617;DHT22;63123;50.906;4.198;2023-04-24T00:49:33;16.70;58.80
74617;DHT22;63123;50.906;4.198;2023-04-24T00:51:58;16.70;58.80
74617;DHT22;63123;50.906;4.198;2023-04-24T00:54:24;16.70;58.80
74617;DHT22;63123;50.906;4.198;2023-04-24T00:56:50;16.70;58.80
74617;DHT22;63123;50.906;4.198;2023-04-24T00:59:17;16.70;58.90
74617;DHT22;63123;50.906;4.198;2023-04-24T01:01:44;16.70;58.80
74617;DHT22;63123;50.906;4.198;2023-04-24T01:04:11;16.80;58.90
74617;DHT22;63123;50.906;4.198;2023-04-24T01:06:39;16.70;58.80
74617;DHT22;63123;50.906;4.198;2023-04-24T01:09:05;16.70;58.80
74617;DHT22;63123;50.906;4.198;2023-04-24T01:11:31;16.70;58.80
74617;DHT22;63123;50.906;4.198;2023-04-24T01:13:57;16.70;58.80
74617;DHT22;63123;50.906;4.198;2023-04-24T01:16:24;16.70;58.80
74617;DHT22;63123;50.906;4.198;2023-04-24T01:18:50;16.70;58.80
74617;DHT22;63123;50.906;4.198;2023-04-24T01:21:17;16.70;59.40
74617;DHT22;63123;50.906;4.198;2023-04-24T01:23:44;16.70;58.90
74617;DHT22;63123;50.906;4.198;2023-04-24T01:26:10;16.70;58.80
74617;DHT22;63123;50.906;4.198;2023-04-24T01:28:36;16.70;58.80
74617;DHT22;63123;50.906;4.198;2023-04-24T01:31:03;16.70;58.90
74617;DHT22;63123;50.906;4.198;2023-04-24T01:33:28;16.70;58.90
74617;DHT22;63123;50.906;4.198;2023-04-24T01:35:54;16.70;58.90
74617;DHT22;63123;50.906;4.198;2023-04-24T01:38:20;16.70;58.80
74617;DHT22;63123;50.906;4.198;2023-04-24T01:40:46;16.70;58.80
74617;DHT22;63123;50.906;4.198;2023-04-24T01:43:12;16.70;58.80
74617;DHT22;63123;50.906;4.198;2023-04-24T01:45:38;16.70;58.80
74617;DHT22;63123;50.906;4.198;2023-04-24T01:48:04;16.70;58.80
74617;DHT22;63123;50.906;4.198;2023-04-24T01:50:30;16.70;58.80
74617;DHT22;63123;50.906;4.198;2023-04-24T01:52:56;16.70;58.80
74617;DHT22;63123;50.906;4.198;2023-04-24T01:55:21;16.70;58.80
74617;DHT22;63123;50.906;4.198;2023-04-24T01:57:47;16.70;58.80
74617;DHT22;63123;50.906;4.198;2023-04-24T02:00:13;16.70;58.70
74617;DHT22;63123;50.906;4.198;2023-04-24T02:02:40;16.70;58.80
74617;DHT22;63123;50.906;4.198;2023-04-24T02:05:07;16.70;58.70
74617;DHT22;63123;50.906;4.198;2023-04-24T02:07:33;16.70;58.70
74617;DHT22;63123;50.906;4.198;2023-04-24T02:09:59;16.70;58.70
74617;DHT22;63123;50.906;4.198;2023-04-24T02:12:24;16.70;58.70
74617;DHT22;63123;50.906;4.198;2023-04-24T02:14:50;16.70;58.70
74617;DHT22;63123;50.906;4.198;2023-04-24T02:17:16;16.70;59.30
74617;DHT22;63123;50.906;4.198;2023-04-24T02:19:42;16.70;58.60
74617;DHT22;63123;50.906;4.198;2023-04-24T02:22:07;16.70;58.70
74617;DHT22;63123;50.906;4.198;2023-04-24T02:24:33;16.70;58.70
74617;DHT22;63123;50.906;4.198;2023-04-24T02:26:59;16.70;58.70
74617;DHT22;63123;50.906;4.198;2023-04-24T02:29:25;16.70;58.70
74617;DHT22;63123;50.906;4.198;2023-04-24T02:31:51;16.70;58.70
74617;DHT22;63123;50.906;4.198;2023-04-24T02:34:16;16.70;58.70
74617;DHT22;63123;50.906;4.198;2023-04-24T02:36:42;16.70;58.70
74617;DHT22;63123;50.906;4.198;2023-04-24T02:39:07;16.70;58.70
74617;DHT22;63123;50.906;4.198;2023-04-24T02:41:33;16.70;58.70
74617;DHT22;63123;50.906;4.198;2023-04-24T02:43:59;16.70;58.70
74617;DHT22;63123;50.906;4.198;2023-04-24T02:46:25;16.70;58.70
74617;DHT22;63123;50.906;4.198;2023-04-24T02:48:51;16.70;59.30
74617;DHT22;63123;50.906;4.198;2023-04-24T02:51:17;16.70;58.60
74617;DHT22;63123;50.906;4.198;2023-04-24T02:53:42;16.70;58.70
74617;DHT22;63123;50.906;4.198;2023-04-24T02:56:08;16.70;58.60
74617;DHT22;63123;50.906;4.198;2023-04-24T02:58:33;16.70;58.70
74617;DHT22;63123;50.906;4.198;2023-04-24T03:00:59;16.70;58.60
74617;DHT22;63123;50.906;4.198;2023-04-24T03:03:25;16.70;58.70
74617;DHT22;63123;50.906;4.198;2023-04-24T03:05:51;16.70;58.60
74617;DHT22;63123;50.906;4.198;2023-04-24T03:08:17;16.70;58.70
74617;DHT22;63123;50.906;4.198;2023-04-24T03:10:43;16.70;58.60
74617;DHT22;63123;50.906;4.198;2023-04-24T03:13:09;16.70;58.60
74617;DHT22;63123;50.906;4.198;2023-04-24T03:15:34;16.70;58.70
74617;DHT22;63123;50.906;4.198;2023-04-24T03:18:00;16.70;58.70
74617;DHT22;63123;50.906;4.198;2023-04-24T03:20:26;16.70;58.70
74617;DHT22;63123;50.906;4.198;2023-04-24T03:22:51;16.70;58.70
74617;DHT22;63123;50.906;4.198;2023-04-24T03:25:17;16.70;59.30
74617;DHT22;63123;50.906;4.198;2023-04-24T03:27:43;16.70;58.70
74617;DHT22;63123;50.906;4.198;2023-04-24T03:30:09;16.70;58.60
74617;DHT22;63123;50.906;4.198;2023-04-24T03:32:34;16.70;58.70
74617;DHT22;63123;50.906;4.198;2023-04-24T03:35:00;16.70;58.70
74617;DHT22;63123;50.906;4.198;2023-04-24T03:37:26;16.70;58.70
74617;DHT22;63123;50.906;4.198;2023-04-24T03:39:52;16.70;58.70
74617;DHT22;63123;50.906;4.198;2023-04-24T03:42:17;16.70;58.70
74617;DHT22;63123;50.906;4.198;2023-04-24T03:44:43;16.70;58.70
74617;DHT22;63123;50.906;4.198;2023-04-24T03:47:09;16.70;58.70
74617;DHT22;63123;50.906;4.198;2023-04-24T03:49:34;16.70;58.70
74617;DHT22;63123;50.906;4.198;2023-04-24T03:52:00;16.70;58.70
74617;DHT22;63123;50.906;4.198;2023-04-24T03:54:27;16.70;58.70
74617;DHT22;63123;50.906;4.198;2023-04-24T03:56:52;16.70;58.70
74617;DHT22;63123;50.906;4.198;2023-04-24T03:59:18;16.70;58.70
74617;DHT22;63123;50.906;4.198;2023-04-24T04:01:44;16.70;58.70
74617;DHT22;63123;50.906;4.198;2023-04-24T04:04:10;16.70;58.70
74617;DHT22;63123;50.906;4.198;2023-04-24T04:06:36;16.70;58.70
74617;DHT22;63123;50.906;4.198;2023-04-24T04:09:02;16.70;58.70
74617;DHT22;63123;50.906;4.198;2023-04-24T04:11:29;16.70;58.70
74617;DHT22;63123;50.906;4.198;2023-04-24T04:13:55;16.70;58.70
74617;DHT22;63123;50.906;4.198;2023-04-24T04:16:22;16.70;58.60
74617;DHT22;63123;50.906;4.198;2023-04-24T04:18:48;16.70;58.70
74617;DHT22;63123;50.906;4.198;2023-04-24T04:21:13;16.70;58.70
74617;DHT22;63123;50.906;4.198;2023-04-24T04:23:39;16.70;58.70
74617;DHT22;63123;50.906;4.198;2023-04-24T04:26:05;16.70;58.70
74617;DHT22;63123;50.906;4.198;2023-04-24T04:28:31;16.70;58.60
74617;DHT22;63123;50.906;4.198;2023-04-24T04:30:57;16.70;58.70
74617;DHT22;63123;50.906;4.198;2023-04-24T04:33:24;16.70;58.70
74617;DHT22;63123;50.906;4.198;2023-04-24T04:35:50;16.70;58.60
74617;DHT22;63123;50.906;4.198;2023-04-24T04:38:18;16.70;58.60
74617;DHT22;63123;50.906;4.198;2023-04-24T04:40:44;16.70;58.50
74617;DHT22;63123;50.906;4.198;2023-04-24T04:43:11;16.70;58.60
74617;DHT22;63123;50.906;4.198;2023-04-24T04:45:37;16.70;58.50
74617;DHT22;63123;50.906;4.198;2023-04-24T04:48:04;16.70;58.50
74617;DHT22;63123;50.906;4.198;2023-04-24T04:50:32;16.70;58.50
74617;DHT22;63123;50.906;4.198;2023-04-24T04:52:58;16.70;58.50
74617;DHT22;63123;50.906;4.198;2023-04-24T04:55:24;16.70;58.50
74617;DHT22;63123;50.906;4.198;2023-04-24T04:57:50;16.70;58.50
74617;DHT22;63123;50.906;4.198;2023-04-24T05:00:16;16.70;58.50
74617;DHT22;63123;50.906;4.198;2023-04-24T05:02:43;16.70;58.50
74617;DHT22;63123;50.906;4.198;2023-04-24T05:05:09;16.70;58.40
74617;DHT22;63123;50.906;4.198;2023-04-24T05:07:34;16.70;58.40
74617;DHT22;63123;50.906;4.198;2023-04-24T05:10:00;16.70;58.40
74617;DHT22;63123;50.906;4.198;2023-04-24T05:12:26;16.70;58.40
74617;DHT22;63123;50.906;4.198;2023-04-24T05:14:52;16.70;58.40
74617;DHT22;63123;50.906;4.198;2023-04-24T05:17:18;16.70;58.50
74617;DHT22;63123;50.906;4.198;2023-04-24T05:19:44;16.70;58.40
74617;DHT22;63123;50.906;4.198;2023-04-24T05:22:10;16.70;58.50
74617;DHT22;63123;50.906;4.198;2023-04-24T05:24:37;16.70;58.50
74617;DHT22;63123;50.906;4.198;2023-04-24T05:27:03;16.70;58.50
74617;DHT22;63123;50.906;4.198;2023-04-24T05:29:32;16.70;58.50
74617;DHT22;63123;50.906;4.198;2023-04-24T05:31:59;16.70;58.50
74617;DHT22;63123;50.906;4.198;2023-04-24T05:34:24;16.70;58.50
74617;DHT22;63123;50.906;4.198;2023-04-24T05:36:50;16.70;58.60
74617;DHT22;63123;50.906;4.198;2023-04-24T05:39:16;16.70;58.50
74617;DHT22;63123;50.906;4.198;2023-04-24T05:41:42;16.70;58.50
74617;DHT22;63123;50.906;4.198;2023-04-24T05:44:08;16.70;58.60
74617;DHT22;63123;50.906;4.198;2023-04-24T05:46:34;16.70;58.60
74617;DHT22;63123;50.906;4.198;2023-04-24T05:48:59;16.70;58.50
74617;DHT22;63123;50.906;4.198;2023-04-24T05:51:25;16.70;58.60
74617;DHT22;63123;50.906;4.198;2023-04-24T05:53:51;16.70;58.60
74617;DHT22;63123;50.906;4.198;2023-04-24T05:56:17;16.70;58.60
74617;DHT22;63123;50.906;4.198;2023-04-24T05:58:43;16.70;58.60
74617;DHT22;63123;50.906;4.198;2023-04-24T06:01:09;16.70;58.60
74617;DHT22;63123;50.906;4.198;2023-04-24T06:03:35;16.70;58.60
74617;DHT22;63123;50.906;4.198;2023-04-24T06:06:00;16.70;58.60
74617;DHT22;63123;50.906;4.198;2023-04-24T06:08:26;16.70;58.60
74617;DHT22;63123;50.906;4.198;2023-04-24T06:10:52;16.70;58.60
74617;DHT22;63123;50.906;4.198;2023-04-24T06:13:17;16.70;58.50
74617;DHT22;63123;50.906;4.198;2023-04-24T06:15:43;16.70;58.50
74617;DHT22;63123;50.906;4.198;2023-04-24T06:18:09;16.70;58.50
74617;DHT22;63123;50.906;4.198;2023-04-24T06:20:38;16.70;58.50
74617;DHT22;63123;50.906;4.198;2023-04-24T06:23:03;16.70;58.50
74617;DHT22;63123;50.906;4.198;2023-04-24T06:25:29;16.70;58.50
74617;DHT22;63123;50.906;4.198;2023-04-24T06:27:55;16.70;58.50
74617;DHT22;63123;50.906;4.198;2023-04-24T06:30:22;16.70;58.50
74617;DHT22;63123;50.906;4.198;2023-04-24T06:32:47;16.70;58.50
74617;DHT22;63123;50.906;4.198;2023-04-24T06:35:13;16.70;58.50
74617;DHT22;63123;50.906;4.198;2023-04-24T06:37:39;16.70;58.50
74617;DHT22;63123;50.906;4.198;2023-04-24T06:40:06;16.70;58.50
74617;DHT22;63123;50.906;4.198;2023-04-24T06:42:31;16.70;58.50
74617;DHT22;63123;50.906;4.198;2023-04-24T06:44:57;16.70;58.50
74617;DHT22;63123;50.906;4.198;2023-04-24T06:47:22;16.70;58.50
74617;DHT22;63123;50.906;4.198;2023-04-24T06:49:48;16.70;58.50
74617;DHT22;63123;50.906;4.198;2023-04-24T06:52:16;16.70;58.50
74617;DHT22;63123;50.906;4.198;2023-04-24T06:54:42;16.70;58.50
74617;DHT22;63123;50.906;4.198;2023-04-24T06:57:08;16.70;58.40
74617;DHT22;63123;50.906;4.198;2023-04-24T06:59:34;16.70;58.50
74617;DHT22;63123;50.906;4.198;2023-04-24T07:02:00;16.70;58.50
74617;DHT22;63123;50.906;4.198;2023-04-24T07:04:25;16.70;58.50
74617;DHT22;63123;50.906;4.198;2023-04-24T07:06:52;16.70;58.50
74617;DHT22;63123;50.906;4.198;2023-04-24T07:09:19;16.70;58.50
74617;DHT22;63123;50.906;4.198;2023-04-24T07:11:45;16.70;58.50
74617;DHT22;63123;50.906;4.198;2023-04-24T07:14:11;16.70;58.50
74617;DHT22;63123;50.906;4.198;2023-04-24T07:16:37;16.70;58.40
74617;DHT22;63123;50.906;4.198;2023-04-24T07:19:03;16.70;58.50
74617;DHT22;63123;50.906;4.198;2023-04-24T07:21:28;16.70;58.50
74617;DHT22;63123;50.906;4.198;2023-04-24T07:23:56;16.70;58.40
74617;DHT22;63123;50.906;4.198;2023-04-24T07:26:22;16.70;58.50
74617;DHT22;63123;50.906;4.198;2023-04-24T07:28:47;16.70;58.40
74617;DHT22;63123;50.906;4.198;2023-04-24T07:31:13;16.70;59.00
74617;DHT22;63123;50.906;4.198;2023-04-24T07:33:38;16.70;58.50
74617;DHT22;63123;50.906;4.198;2023-04-24T07:36:04;16.70;58.70
74617;DHT22;63123;50.906;4.198;2023-04-24T07:38:30;16.70;58.60
74617;DHT22;63123;50.906;4.198;2023-04-24T07:40:56;16.70;58.60
74617;DHT22;63123;50.906;4.198;2023-04-24T07:43:22;16.70;58.60
74617;DHT22;63123;50.906;4.198;2023-04-24T07:45:49;16.70;58.50
74617;DHT22;63123;50.906;4.198;2023-04-24T07:48:17;16.70;58.50
74617;DHT22;63123;50.906;4.198;2023-04-24T07:50:46;16.70;58.60
74617;DHT22;63123;50.906;4.198;2023-04-24T07:53:12;16.70;58.60
74617;DHT22;63123;50.906;4.198;2023-04-24T07:55:37;16.70;58.70
74617;DHT22;63123;50.906;4.198;2023-04-24T07:58:03;16.70;58.60
74617;DHT22;63123;50.906;4.198;2023-04-24T08:00:29;16.70;58.60
74617;DHT22;63123;50.906;4.198;2023-04-24T08:02:54;16.70;58.50
74617;DHT22;63123;50.906;4.198;2023-04-24T08:05:20;16.70;58.50
74617;DHT22;63123;50.906;4.198;2023-04-24T08:07:46;16.70;58.60
74617;DHT22;63123;50.906;4.198;2023-04-24T08:10:14;16.70;58.40
74617;DHT22;63123;50.906;4.198;2023-04-24T08:12:40;16.70;58.40
74617;DHT22;63123;50.906;4.198;2023-04-24T08:15:06;16.70;58.40
74617;DHT22;63123;50.906;4.198;2023-04-24T08:17:33;16.70;58.50
74617;DHT22;63123;50.906;4.198;2023-04-24T08:19:59;16.70;58.40
74617;DHT22;63123;50.906;4.198;2023-04-24T08:22:27;16.70;58.50
74617;DHT22;63123;50.906;4.198;2023-04-24T08:24:53;16.70;58.40
74617;DHT22;63123;50.906;4.198;2023-04-24T08:27:19;16.80;58.50
74617;DHT22;63123;50.906;4.198;2023-04-24T08:29:45;16.70;58.30
74617;DHT22;63123;50.906;4.198;2023-04-24T08:32:11;16.70;58.30
74617;DHT22;63123;50.906;4.198;2023-04-24T08:34:36;16.70;58.20
74617;DHT22;63123;50.906;4.198;2023-04-24T08:37:02;16.80;58.30
74617;DHT22;63123;50.906;4.198;2023-04-24T08:39:28;16.80;58.20
74617;DHT22;63123;50.906;4.198;2023-04-24T08:41:55;16.80;58.30
74617;DHT22;63123;50.906;4.198;2023-04-24T08:44:21;16.80;58.20
74617;DHT22;63123;50.906;4.198;2023-04-24T08:46:48;16.80;58.00
74617;DHT22;63123;50.906;4.198;2023-04-24T08:49:14;16.80;58.00
74617;DHT22;63123;50.906;4.198;2023-04-24T08:51:44;16.80;57.90
74617;DHT22;63123;50.906;4.198;2023-04-24T08:54:11;16.80;58.00
74617;DHT22;63123;50.906;4.198;2023-04-24T08:56:37;16.80;57.80
74617;DHT22;63123;50.906;4.198;2023-04-24T08:59:06;16.80;57.90
74617;DHT22;63123;50.906;4.198;2023-04-24T09:01:32;16.80;57.80
74617;DHT22;63123;50.906;4.198;2023-04-24T09:04:01;16.80;57.70
74617;DHT22;63123;50.906;4.198;2023-04-24T09:06:28;16.80;57.60
74617;DHT22;63123;50.906;4.198;2023-04-24T09:08:54;16.80;57.50
74617;DHT22;63123;50.906;4.198;2023-04-24T09:11:21;16.90;57.40
74617;DHT22;63123;50.906;4.198;2023-04-24T09:13:49;16.80;57.50
74617;DHT22;63123;50.906;4.198;2023-04-24T09:16:16;16.80;57.30
74617;DHT22;63123;50.906;4.198;2023-04-24T09:18:42;16.80;57.30
74617;DHT22;63123;50.906;4.198;2023-04-24T09:21:09;16.80;57.20
74617;DHT22;63123;50.906;4.198;2023-04-24T09:23:35;16.80;57.20
74617;DHT22;63123;50.906;4.198;2023-04-24T09:26:02;16.80;57.30
74617;DHT22;63123;50.906;4.198;2023-04-24T09:28:41;16.80;57.30
74617;DHT22;63123;50.906;4.198;2023-04-24T09:31:18;16.90;57.10
74617;DHT22;63123;50.906;4.198;2023-04-24T09:34:02;16.80;57.00
74617;DHT22;63123;50.906;4.198;2023-04-24T09:36:36;16.80;56.90
74617;DHT22;63123;50.906;4.198;2023-04-24T09:39:05;16.90;56.90
74617;DHT22;63123;50.906;4.198;2023-04-24T09:41:32;16.90;56.60
74617;DHT22;63123;50.906;4.198;2023-04-24T09:44:14;16.90;56.70
74617;DHT22;63123;50.906;4.198;2023-04-24T09:46:41;16.90;56.50
74617;DHT22;63123;50.906;4.198;2023-04-24T09:49:14;16.90;56.60
74617;DHT22;63123;50.906;4.198;2023-04-24T09:51:41;16.90;56.60
74617;DHT22;63123;50.906;4.198;2023-04-24T09:54:20;16.90;56.70
74617;DHT22;63123;50.906;4.198;2023-04-24T09:56:48;16.90;56.70
74617;DHT22;63123;50.906;4.198;2023-04-24T09:59:15;16.90;56.40
74617;DHT22;63123;50.906;4.198;2023-04-24T10:01:41;17.00;56.10
74617;DHT22;63123;50.906;4.198;2023-04-24T10:04:21;17.00;56.20
74617;DHT22;63123;50.906;4.198;2023-04-24T10:06:49;17.00;56.00
74617;DHT22;63123;50.906;4.198;2023-04-24T10:09:16;16.90;56.20
74617;DHT22;63123;50.906;4.198;2023-04-24T10:11:44;16.90;56.80
74617;DHT22;63123;50.906;4.198;2023-04-24T10:14:18;16.90;56.20
74617;DHT22;63123;50.906;4.198;2023-04-24T10:16:45;16.90;55.90
74617;DHT22;63123;50.906;4.198;2023-04-24T10:19:13;17.10;55.50
74617;DHT22;63123;50.906;4.198;2023-04-24T10:21:40;17.10;55.70
74617;DHT22;63123;50.906;4.198;2023-04-24T10:24:08;17.10;55.60
74617;DHT22;63123;50.906;4.198;2023-04-24T10:26:35;17.00;55.60
74617;DHT22;63123;50.906;4.198;2023-04-24T10:29:05;17.00;55.60
74617;DHT22;63123;50.906;4.198;2023-04-24T10:31:35;17.00;55.70
74617;DHT22;63123;50.906;4.198;2023-04-24T10:34:01;17.00;55.70
74617;DHT22;63123;50.906;4.198;2023-04-24T10:36:28;16.90;55.60
74617;DHT22;63123;50.906;4.198;2023-04-24T10:38:56;17.00;55.60
74617;DHT22;63123;50.906;4.198;2023-04-24T10:41:25;17.00;55.80
74617;DHT22;63123;50.906;4.198;2023-04-24T10:44:11;17.00;55.70
74617;DHT22;63123;50.906;4.198;2023-04-24T10:46:38;17.00;55.40
74617;DHT22;63123;50.906;4.198;2023-04-24T10:49:07;17.00;55.50
74617;DHT22;63123;50.906;4.198;2023-04-24T10:54:40;17.00;55.30
74617;DHT22;63123;50.906;4.198;2023-04-24T11:00:09;16.90;55.60
74617;DHT22;63123;50.906;4.198;2023-04-24T11:02:37;16.90;55.60
74617;DHT22;63123;50.906;4.198;2023-04-24T11:05:04;17.00;55.90
74617;DHT22;63123;50.906;4.198;2023-04-24T11:07:29;16.90;55.90
74617;DHT22;63123;50.906;4.198;2023-04-24T11:09:59;16.90;56.00
74617;DHT22;63123;50.906;4.198;2023-04-24T11:12:26;16.90;55.70
74617;DHT22;63123;50.906;4.198;2023-04-24T11:15:00;16.90;55.80
74617;DHT22;63123;50.906;4.198;2023-04-24T11:17:34;16.90;55.70
74617;DHT22;63123;50.906;4.198;2023-04-24T11:20:04;16.90;55.60
74617;DHT22;63123;50.906;4.198;2023-04-24T11:22:34;16.90;55.60
74617;DHT22;63123;50.906;4.198;2023-04-24T11:25:03;16.90;56.00
74617;DHT22;63123;50.906;4.198;2023-04-24T11:27:31;16.90;55.70
74617;DHT22;63123;50.906;4.198;2023-04-24T11:32:28;16.90;55.60
74617;DHT22;63123;50.906;4.198;2023-04-24T11:35:05;16.90;55.20
74617;DHT22;63123;50.906;4.198;2023-04-24T11:37:40;16.90;55.30
74617;DHT22;63123;50.906;4.198;2023-04-24T11:40:08;16.90;55.50
74617;DHT22;63123;50.906;4.198;2023-04-24T11:42:39;16.90;55.60
74617;DHT22;63123;50.906;4.198;2023-04-24T11:45:10;16.90;55.60
74617;DHT22;63123;50.906;4.198;2023-04-24T11:47:36;16.90;55.30
74617;DHT22;63123;50.906;4.198;2023-04-24T11:50:03;16.90;55.50
74617;DHT22;63123;50.906;4.198;2023-04-24T11:52:29;16.90;55.40
74617;DHT22;63123;50.906;4.198;2023-04-24T11:54:55;16.90;55.40
74617;DHT22;63123;50.906;4.198;2023-04-24T11:57:25;16.90;55.30
74617;DHT22;63123;50.906;4.198;2023-04-24T11:59:54;16.90;55.40
74617;DHT22;63123;50.906;4.198;2023-04-24T12:02:23;16.90;55.40
74617;DHT22;63123;50.906;4.198;2023-04-24T12:04:49;16.90;55.40
74617;DHT22;63123;50.906;4.198;2023-04-24T12:07:15;16.90;55.20
74617;DHT22;63123;50.906;4.198;2023-04-24T12:09:48;16.90;55.10
74617;DHT22;63123;50.906;4.198;2023-04-24T12:12:16;16.90;54.90
74617;DHT22;63123;50.906;4.198;2023-04-24T12:14:49;16.90;55.20
74617;DHT22;63123;50.906;4.198;2023-04-24T12:17:17;16.90;55.20
74617;DHT22;63123;50.906;4.198;2023-04-24T12:19:47;16.90;55.10
74617;DHT22;63123;50.906;4.198;2023-04-24T12:22:13;16.90;55.00
74617;DHT22;63123;50.906;4.198;2023-04-24T12:25:00;16.90;55.00
74617;DHT22;63123;50.906;4.198;2023-04-24T12:27:29;17.00;55.20
74617;DHT22;63123;50.906;4.198;2023-04-24T12:29:58;16.90;55.10
74617;DHT22;63123;50.906;4.198;2023-04-24T12:32:24;16.90;55.10
74617;DHT22;63123;50.906;4.198;2023-04-24T12:34:51;16.90;55.10
74617;DHT22;63123;50.906;4.198;2023-04-24T12:37:17;16.90;55.00
74617;DHT22;63123;50.906;4.198;2023-04-24T12:40:09;16.90;55.10
74617;DHT22;63123;50.906;4.198;2023-04-24T12:42:41;16.90;55.20
74617;DHT22;63123;50.906;4.198;2023-04-24T12:45:07;16.90;55.10
74617;DHT22;63123;50.906;4.198;2023-04-24T12:47:34;16.90;55.00
74617;DHT22;63123;50.906;4.198;2023-04-24T12:50:00;16.90;55.10
74617;DHT22;63123;50.906;4.198;2023-04-24T12:52:28;16.90;55.00
74617;DHT22;63123;50.906;4.198;2023-04-24T12:54:58;16.90;54.90
74617;DHT22;63123;50.906;4.198;2023-04-24T12:57:25;16.90;55.00
74617;DHT22;63123;50.906;4.198;2023-04-24T12:59:54;16.90;54.90
74617;DHT22;63123;50.906;4.198;2023-04-24T13:02:20;16.90;55.00
74617;DHT22;63123;50.906;4.198;2023-04-24T13:04:47;16.90;54.90
74617;DHT22;63123;50.906;4.198;2023-04-24T13:07:14;16.90;55.50
74617;DHT22;63123;50.906;4.198;2023-04-24T13:09:40;16.90;54.80
74617;DHT22;63123;50.906;4.198;2023-04-24T13:12:07;16.90;54.60
74617;DHT22;63123;50.906;4.198;2023-04-24T13:14:33;16.90;54.70
74617;DHT22;63123;50.906;4.198;2023-04-24T13:16:58;16.90;54.70
74617;DHT22;63123;50.906;4.198;2023-04-24T13:19:25;16.90;54.60
74617;DHT22;63123;50.906;4.198;2023-04-24T13:21:55;16.90;54.60
74617;DHT22;63123;50.906;4.198;2023-04-24T13:24:22;16.90;54.60
74617;DHT22;63123;50.906;4.198;2023-04-24T13:26:51;16.90;54.40
74617;DHT22;63123;50.906;4.198;2023-04-24T13:29:17;16.90;54.40
74617;DHT22;63123;50.906;4.198;2023-04-24T13:31:43;16.90;54.30
74617;DHT22;63123;50.906;4.198;2023-04-24T13:34:08;16.90;54.40
74617;DHT22;63123;50.906;4.198;2023-04-24T13:36:34;16.90;54.50
74617;DHT22;63123;50.906;4.198;2023-04-24T13:39:00;16.90;54.50
74617;DHT22;63123;50.906;4.198;2023-04-24T13:41:26;16.90;54.50
74617;DHT22;63123;50.906;4.198;2023-04-24T13:43:52;16.90;54.20
74617;DHT22;63123;50.906;4.198;2023-04-24T13:46:17;16.90;54.30
74617;DHT22;63123;50.906;4.198;2023-04-24T13:48:43;16.90;54.10
74617;DHT22;63123;50.906;4.198;2023-04-24T13:51:09;16.90;54.00
74617;DHT22;63123;50.906;4.198;2023-04-24T13:53:35;16.90;53.80
74617;DHT22;63123;50.906;4.198;2023-04-24T13:56:03;16.90;54.00
74617;DHT22;63123;50.906;4.198;2023-04-24T13:58:29;16.90;54.00
74617;DHT22;63123;50.906;4.198;2023-04-24T14:00:55;16.90;53.90
74617;DHT22;63123;50.906;4.198;2023-04-24T14:03:20;16.90;53.90
74617;DHT22;63123;50.906;4.198;2023-04-24T14:05:46;16.90;54.00
74617;DHT22;63123;50.906;4.198;2023-04-24T14:08:12;16.90;54.00
74617;DHT22;63123;50.906;4.198;2023-04-24T14:10:37;16.90;54.40
74617;DHT22;63123;50.906;4.198;2023-04-24T14:13:03;16.90;54.00
74617;DHT22;63123;50.906;4.198;2023-04-24T14:15:28;16.90;53.90
74617;DHT22;63123;50.906;4.198;2023-04-24T14:17:55;16.90;54.00
74617;DHT22;63123;50.906;4.198;2023-04-24T14:20:20;16.90;53.90
74617;DHT22;63123;50.906;4.198;2023-04-24T14:22:46;16.90;54.10
74617;DHT22;63123;50.906;4.198;2023-04-24T14:25:11;16.90;54.00
74617;DHT22;63123;50.906;4.198;2023-04-24T14:27:37;16.90;54.20
74617;DHT22;63123;50.906;4.198;2023-04-24T14:30:03;16.90;54.00
74617;DHT22;63123;50.906;4.198;2023-04-24T14:32:29;16.90;53.90
74617;DHT22;63123;50.906;4.198;2023-04-24T14:34:55;16.90;53.70
74617;DHT22;63123;50.906;4.198;2023-04-24T14:37:21;16.90;53.90
74617;DHT22;63123;50.906;4.198;2023-04-24T14:39:46;16.90;53.70
74617;DHT22;63123;50.906;4.198;2023-04-24T14:42:12;16.90;53.60
74617;DHT22;63123;50.906;4.198;2023-04-24T14:44:37;16.90;53.80
74617;DHT22;63123;50.906;4.198;2023-04-24T14:47:03;16.90;53.70
74617;DHT22;63123;50.906;4.198;2023-04-24T14:49:29;16.90;53.80
74617;DHT22;63123;50.906;4.198;2023-04-24T14:51:54;16.90;53.40
74617;DHT22;63123;50.906;4.198;2023-04-24T14:54:20;16.90;53.60
74617;DHT22;63123;50.906;4.198;2023-04-24T14:56:48;16.90;53.60
74617;DHT22;63123;50.906;4.198;2023-04-24T14:59:14;16.90;53.60
74617;DHT22;63123;50.906;4.198;2023-04-24T15:01:40;16.90;53.40
74617;DHT22;63123;50.906;4.198;2023-04-24T15:04:06;16.90;54.10
74617;DHT22;63123;50.906;4.198;2023-04-24T15:06:31;16.90;53.50
74617;DHT22;63123;50.906;4.198;2023-04-24T15:08:58;16.90;54.30
74617;DHT22;63123;50.906;4.198;2023-04-24T15:11:24;16.90;53.50
74617;DHT22;63123;50.906;4.198;2023-04-24T15:13:50;16.90;53.40
74617;DHT22;63123;50.906;4.198;2023-04-24T15:16:15;16.90;53.60
74617;DHT22;63123;50.906;4.198;2023-04-24T15:18:41;16.90;53.40
74617;DHT22;63123;50.906;4.198;2023-04-24T15:21:07;16.90;53.50
74617;DHT22;63123;50.906;4.198;2023-04-24T15:23:33;16.90;53.30
74617;DHT22;63123;50.906;4.198;2023-04-24T15:25:58;16.90;53.40
74617;DHT22;63123;50.906;4.198;2023-04-24T15:28:27;16.90;53.30
74617;DHT22;63123;50.906;4.198;2023-04-24T15:30:52;16.90;53.30
74617;DHT22;63123;50.906;4.198;2023-04-24T15:33:18;16.90;53.20
74617;DHT22;63123;50.906;4.198;2023-04-24T15:35:44;16.90;53.60